createdAt,value
2018-03-28T00:02:09.059Z,66.70
2018-03-28T00:04:37.352Z,67.30
2018-03-28T00:07:04.883Z,67.30
2018-03-28T00:09:32.510Z,67.70
2018-03-28T00:12:00.152Z,67.70
2018-03-28T00:14:27.673Z,67.90
2018-03-28T00:16:55.236Z,67.90
2018-03-28T00:19:23.656Z,68.00
2018-03-28T00:21:51.245Z,67.90
2018-03-28T00:24:20.003Z,67.80
2018-03-28T00:26:47.554Z,67.90
2018-03-28T00:29:15.126Z,67.90
2018-03-28T00:31:42.629Z,67.80
2018-03-28T00:34:10.172Z,67.80
2018-03-28T00:36:37.726Z,67.50
2018-03-28T00:39:05.972Z,67.50
2018-03-28T00:41:33.498Z,67.40
2018-03-28T00:44:01.816Z,67.40
2018-03-28T00:46:30.620Z,67.40
2018-03-28T00:48:58.211Z,67.60
2018-03-28T00:51:37.425Z,67.40
2018-03-28T00:54:05.879Z,67.40
2018-03-28T00:56:33.397Z,67.20
2018-03-28T00:59:01.689Z,67.70
2018-03-28T01:01:29.982Z,67.20
2018-03-28T01:03:57.657Z,67.20
2018-03-28T01:06:25.191Z,67.10
2018-03-28T01:08:52.782Z,67.00
2018-03-28T01:11:20.304Z,66.90
2018-03-28T01:13:48.083Z,66.60
2018-03-28T01:16:16.517Z,66.50
2018-03-28T01:18:44.070Z,66.40
2018-03-28T01:21:11.973Z,66.30
2018-03-28T01:23:39.527Z,66.40
2018-03-28T01:26:07.233Z,66.30
2018-03-28T01:28:35.021Z,66.50
2018-03-28T01:31:02.515Z,66.40
2018-03-28T01:33:31.219Z,66.80
2018-03-28T01:35:58.768Z,66.80
2018-03-28T01:38:26.282Z,67.00
2018-03-28T01:40:53.828Z,66.90
2018-03-28T01:43:21.340Z,67.00
2018-03-28T01:45:48.862Z,67.10
2018-03-28T01:48:16.721Z,67.00
2018-03-28T01:50:44.565Z,67.00
2018-03-28T01:53:12.090Z,67.00
2018-03-28T01:55:40.381Z,67.50
2018-03-28T01:58:07.877Z,67.60
2018-03-28T02:00:35.564Z,67.70
2018-03-28T02:03:03.102Z,67.80
2018-03-28T02:05:31.678Z,67.90
2018-03-28T02:07:59.370Z,67.90
2018-03-28T02:10:27.192Z,67.70
2018-03-28T02:12:54.797Z,67.50
2018-03-28T02:15:22.332Z,67.40
2018-03-28T02:17:50.077Z,67.50
2018-03-28T02:20:17.625Z,67.70
2018-03-28T02:22:45.175Z,68.00
2018-03-28T02:25:12.736Z,67.90
2018-03-28T02:27:40.252Z,68.00
2018-03-28T02:30:08.445Z,67.90
2018-03-28T02:32:36.087Z,68.20
2018-03-28T02:35:03.612Z,68.30
2018-03-28T02:37:31.318Z,68.40
2018-03-28T02:39:58.839Z,68.60
2018-03-28T02:42:26.425Z,68.80
2018-03-28T02:44:54.049Z,68.90
2018-03-28T02:47:21.684Z,69.10
2018-03-28T02:49:50.009Z,69.60
2018-03-28T02:52:17.971Z,69.60
2018-03-28T02:54:45.519Z,69.60
2018-03-28T02:57:13.051Z,69.70
2018-03-28T02:59:41.533Z,70.00
2018-03-28T03:02:09.185Z,70.00
2018-03-28T03:04:36.787Z,69.70
2018-03-28T03:07:04.345Z,69.50
2018-03-28T03:09:31.931Z,69.40
2018-03-28T03:11:59.439Z,69.60
2018-03-28T03:14:27.814Z,69.80
2018-03-28T03:16:55.538Z,69.80
2018-03-28T03:19:23.086Z,69.90
2018-03-28T03:21:51.201Z,70.50
2018-03-28T03:24:18.721Z,70.00
2018-03-28T03:26:46.455Z,70.00
2018-03-28T03:29:13.987Z,70.00
2018-03-28T03:31:41.581Z,69.90
2018-03-28T03:34:09.087Z,69.90
2018-03-28T03:36:36.621Z,69.90
2018-03-28T03:39:04.155Z,69.70
2018-03-28T03:41:31.681Z,69.60
2018-03-28T03:44:00.167Z,69.50
2018-03-28T03:46:28.483Z,69.50
2018-03-28T03:48:56.009Z,69.50
2018-03-28T03:51:24.297Z,69.40
2018-03-28T03:53:52.658Z,69.40
2018-03-28T03:56:20.569Z,69.20
2018-03-28T03:58:48.093Z,69.40
2018-03-28T04:01:15.816Z,69.40
2018-03-28T04:03:43.529Z,69.50
2018-03-28T04:06:12.001Z,69.60
2018-03-28T04:08:40.410Z,69.70
2018-03-28T04:11:08.116Z,69.60
2018-03-28T04:13:35.959Z,70.00
2018-03-28T04:16:03.611Z,70.30
2018-03-28T04:18:32.121Z,70.40
2018-03-28T04:20:59.697Z,70.50
2018-03-28T04:23:27.240Z,70.50
2018-03-28T04:25:54.770Z,70.40
2018-03-28T04:28:22.537Z,70.40
2018-03-28T04:30:50.082Z,70.40
2018-03-28T04:33:17.617Z,70.50
2018-03-28T04:35:45.124Z,70.50
2018-03-28T04:38:12.872Z,70.30
2018-03-28T04:40:41.627Z,70.40
2018-03-28T04:43:09.952Z,70.20
2018-03-28T04:45:37.465Z,70.00
2018-03-28T04:48:05.226Z,70.50
2018-03-28T04:50:32.899Z,71.00
2018-03-28T04:53:00.421Z,71.20
2018-03-28T04:55:27.962Z,71.50
2018-03-28T04:57:55.494Z,71.20
2018-03-28T05:00:23.018Z,71.20
2018-03-28T05:02:51.043Z,71.10
2018-03-28T05:05:18.558Z,71.40
2018-03-28T05:07:46.462Z,71.40
2018-03-28T05:10:14.203Z,72.60
2018-03-28T05:12:41.748Z,73.30
2018-03-28T05:15:10.203Z,74.40
2018-03-28T05:17:37.967Z,74.40
2018-03-28T05:20:05.755Z,75.20
2018-03-28T05:22:34.095Z,74.00
2018-03-28T05:25:01.830Z,74.00
2018-03-28T05:27:29.362Z,74.70
2018-03-28T05:29:57.634Z,74.80
2018-03-28T05:32:25.196Z,74.80
2018-03-28T05:34:52.821Z,75.80
2018-03-28T05:37:20.384Z,75.60
2018-03-28T05:39:47.906Z,75.10
2018-03-28T05:42:15.720Z,74.50
2018-03-28T05:44:43.261Z,75.60
2018-03-28T05:47:10.869Z,75.40
2018-03-28T05:49:38.456Z,78.10
2018-03-28T05:52:05.985Z,77.70
2018-03-28T05:54:33.529Z,79.80
2018-03-28T05:57:01.024Z,80.20
2018-03-28T05:59:28.701Z,83.40
2018-03-28T06:01:57.254Z,84.80
2018-03-28T06:04:25.554Z,86.60
2018-03-28T06:06:53.483Z,86.50
2018-03-28T06:09:21.028Z,88.00
2018-03-28T06:11:48.562Z,89.30
2018-03-28T06:14:16.276Z,90.10
2018-03-28T06:16:45.621Z,90.60
2018-03-28T06:19:13.180Z,90.60
2018-03-28T06:21:41.035Z,91.20
2018-03-28T06:24:08.742Z,91.40
2018-03-28T06:26:36.355Z,91.20
2018-03-28T06:29:03.952Z,91.10
2018-03-28T06:31:31.454Z,91.30
2018-03-28T06:33:59.005Z,91.20
2018-03-28T06:36:27.279Z,91.30
2018-03-28T06:38:54.812Z,91.20
2018-03-28T06:41:22.299Z,91.20
2018-03-28T06:43:49.903Z,91.50
2018-03-28T06:46:17.652Z,91.70
2018-03-28T06:48:45.171Z,91.50
2018-03-28T06:51:12.869Z,91.90
2018-03-28T06:53:40.575Z,91.80
2018-03-28T06:56:08.633Z,92.40
2018-03-28T06:58:36.389Z,92.40
2018-03-28T07:01:03.946Z,92.10
2018-03-28T07:03:31.865Z,92.10
2018-03-28T07:06:00.519Z,92.30
2018-03-28T07:08:28.254Z,91.70
2018-03-28T07:10:55.745Z,91.60
2018-03-28T07:13:23.435Z,91.80
2018-03-28T07:15:51.816Z,91.60
2018-03-28T07:18:20.116Z,92.20
2018-03-28T07:20:47.656Z,91.90
2018-03-28T07:23:15.927Z,92.90
2018-03-28T07:25:44.205Z,93.30
2018-03-28T07:28:12.544Z,92.60
2018-03-28T07:30:40.042Z,92.80
2018-03-28T07:33:08.315Z,93.30
2018-03-28T07:35:35.942Z,93.30
2018-03-28T07:38:03.435Z,93.50
2018-03-28T07:40:30.990Z,93.70
2018-03-28T07:42:58.465Z,93.70
2018-03-28T07:45:27.658Z,94.00
2018-03-28T07:47:55.503Z,94.00
2018-03-28T07:50:23.159Z,94.40
2018-03-28T07:52:51.852Z,94.80
2018-03-28T07:55:19.640Z,94.50
2018-03-28T07:57:47.481Z,94.60
2018-03-28T08:00:14.994Z,94.80
2018-03-28T08:02:43.106Z,95.00
2018-03-28T08:05:10.670Z,94.60
2018-03-28T08:07:39.368Z,94.60
2018-03-28T08:10:06.974Z,94.60
2018-03-28T08:12:34.558Z,94.40
2018-03-28T08:15:02.355Z,94.70
2018-03-28T08:17:31.398Z,94.80
2018-03-28T08:19:59.154Z,94.80
2018-03-28T08:22:26.960Z,94.10
2018-03-28T08:24:54.697Z,93.90
2018-03-28T08:27:22.245Z,94.10
2018-03-28T08:29:50.777Z,94.10
2018-03-28T08:32:18.614Z,94.10
2018-03-28T08:34:46.156Z,93.80
2018-03-28T08:37:13.747Z,93.60
2018-03-28T08:39:41.878Z,93.70
2018-03-28T08:42:09.881Z,93.30
2018-03-28T08:44:37.620Z,93.00
2018-03-28T08:47:05.390Z,93.20
2018-03-28T08:49:33.162Z,92.90
2018-03-28T08:52:01.573Z,93.30
2018-03-28T08:54:29.685Z,93.30
2018-03-28T08:56:57.171Z,93.30
2018-03-28T08:59:24.708Z,93.30
2018-03-28T09:01:52.293Z,93.20
2018-03-28T09:04:19.999Z,92.80
2018-03-28T09:06:48.107Z,92.70
2018-03-28T09:09:15.637Z,92.40
2018-03-28T09:11:43.150Z,92.40
2018-03-28T09:14:10.847Z,92.80
2018-03-28T09:16:39.681Z,93.10
2018-03-28T09:19:07.230Z,93.30
2018-03-28T09:21:35.627Z,93.30
2018-03-28T09:24:03.175Z,93.30
2018-03-28T09:26:30.728Z,93.50
2018-03-28T09:28:59.076Z,93.20
2018-03-28T09:31:26.606Z,93.00
2018-03-28T09:33:54.117Z,93.00
2018-03-28T09:36:22.808Z,93.40
2018-03-28T09:38:50.497Z,93.40
2018-03-28T09:41:18.159Z,93.10
2018-03-28T09:43:45.837Z,93.10
2018-03-28T09:46:13.396Z,93.30
2018-03-28T09:48:40.909Z,94.20
2018-03-28T09:51:09.310Z,94.10
2018-03-28T09:53:36.870Z,94.10
2018-03-28T09:56:05.365Z,94.20
2018-03-28T09:58:34.043Z,94.20
2018-03-28T10:01:07.658Z,94.10
2018-03-28T10:03:50.590Z,94.80
2018-03-28T10:06:19.107Z,93.90
2018-03-28T10:08:46.672Z,93.70
2018-03-28T10:11:14.200Z,94.50
2018-03-28T10:13:41.737Z,94.50
2018-03-28T10:16:09.724Z,94.40
2018-03-28T10:18:37.260Z,93.90
2018-03-28T10:21:04.802Z,94.60
2018-03-28T10:23:32.302Z,94.60
2018-03-28T10:25:59.873Z,94.50
2018-03-28T10:28:27.375Z,93.70
2018-03-28T10:30:54.882Z,94.00
2018-03-28T10:33:22.490Z,93.90
2018-03-28T10:35:50.100Z,94.20
2018-03-28T10:38:17.745Z,93.70
2018-03-28T10:40:45.443Z,93.80
2018-03-28T10:43:13.630Z,93.80
2018-03-28T10:45:41.455Z,94.00
2018-03-28T10:48:08.994Z,94.60
2018-03-28T10:50:36.562Z,94.00
2018-03-28T10:53:04.069Z,94.00
2018-03-28T10:55:31.958Z,94.00
2018-03-28T10:58:00.228Z,93.10
2018-03-28T11:00:27.954Z,93.00
2018-03-28T11:02:55.476Z,93.40
2018-03-28T11:05:23.049Z,93.60
2018-03-28T11:07:50.585Z,93.50
2018-03-28T11:10:18.877Z,93.60
2018-03-28T11:12:46.498Z,93.60
2018-03-28T11:15:14.023Z,93.70
2018-03-28T11:17:41.561Z,93.60
2018-03-28T11:20:09.399Z,94.00
2018-03-28T11:22:37.691Z,94.20
2018-03-28T11:25:05.215Z,94.20
2018-03-28T11:27:33.040Z,94.20
2018-03-28T11:30:00.692Z,93.60
2018-03-28T11:32:28.327Z,93.20
2018-03-28T11:34:56.018Z,93.70
2018-03-28T11:37:24.248Z,93.60
2018-03-28T11:39:51.800Z,93.60
2018-03-28T11:42:19.318Z,93.70
2018-03-28T11:44:47.068Z,93.70
2018-03-28T11:47:14.611Z,93.70
2018-03-28T11:49:42.334Z,93.20
2018-03-28T11:52:09.839Z,93.40
2018-03-28T11:54:37.897Z,93.50
2018-03-28T11:57:06.298Z,92.70
2018-03-28T11:59:33.910Z,92.70
2018-03-28T12:02:01.478Z,92.80
2018-03-28T12:04:29.008Z,93.10
2018-03-28T12:06:56.583Z,92.90
2018-03-28T12:09:24.078Z,92.10
2018-03-28T12:11:51.731Z,92.30
2018-03-28T12:14:19.466Z,92.30
2018-03-28T12:16:47.568Z,91.60
2018-03-28T12:19:15.846Z,91.80
2018-03-28T12:21:44.122Z,92.20
2018-03-28T12:24:11.836Z,92.20
2018-03-28T12:26:39.452Z,91.70
2018-03-28T12:29:06.975Z,92.00
2018-03-28T12:31:34.525Z,92.10
2018-03-28T12:34:02.798Z,92.00
2018-03-28T12:36:30.416Z,92.20
2018-03-28T12:38:58.160Z,91.20
2018-03-28T12:41:25.764Z,92.20
2018-03-28T12:43:53.724Z,91.50
2018-03-28T12:46:21.624Z,91.50
2018-03-28T12:48:49.118Z,92.40
2018-03-28T12:51:16.687Z,92.90
2018-03-28T12:53:45.000Z,91.00
2018-03-28T12:56:12.551Z,91.40
2018-03-28T12:58:40.116Z,91.40
2018-03-28T13:01:07.800Z,92.40
2018-03-28T13:03:35.528Z,91.00
2018-03-28T13:06:03.067Z,91.20
2018-03-28T13:08:31.401Z,92.30
2018-03-28T13:10:59.897Z,92.30
2018-03-28T13:13:27.387Z,91.50
2018-03-28T13:15:54.975Z,91.90
2018-03-28T13:18:22.746Z,91.60
2018-03-28T13:20:50.270Z,91.40
2018-03-28T13:23:17.968Z,91.80
2018-03-28T13:25:45.501Z,91.80
2018-03-28T13:28:13.872Z,91.70
2018-03-28T13:30:41.653Z,91.70
2018-03-28T13:33:09.974Z,91.90
2018-03-28T13:35:37.613Z,91.90
2018-03-28T13:38:05.438Z,91.70
2018-03-28T13:40:32.958Z,91.80
2018-03-28T13:43:00.475Z,91.80
2018-03-28T13:45:28.740Z,91.30
2018-03-28T13:47:56.345Z,91.20
2018-03-28T13:50:23.899Z,90.80
2018-03-28T13:52:51.396Z,90.60
2018-03-28T13:55:18.915Z,90.60
2018-03-28T13:57:46.447Z,89.60
2018-03-28T14:00:13.966Z,90.20
2018-03-28T14:02:41.497Z,90.10
2018-03-28T14:05:09.134Z,90.60
2018-03-28T14:07:36.957Z,90.80
2018-03-28T14:10:04.501Z,90.80
2018-03-28T14:12:32.139Z,90.80
2018-03-28T14:14:59.858Z,91.10
2018-03-28T14:17:27.469Z,90.90
2018-03-28T14:19:55.214Z,91.50
2018-03-28T14:22:22.760Z,92.00
2018-03-28T14:24:51.053Z,91.20
2018-03-28T14:27:18.564Z,91.10
2018-03-28T14:29:46.273Z,91.50
2018-03-28T14:32:14.073Z,91.60
2018-03-28T14:34:41.927Z,91.30
2018-03-28T14:37:09.679Z,91.00
2018-03-28T14:39:37.224Z,91.00
2018-03-28T14:42:04.849Z,91.30
2018-03-28T14:44:33.089Z,91.70
2018-03-28T14:47:00.662Z,91.50
2018-03-28T14:49:28.239Z,91.40
2018-03-28T14:51:55.775Z,91.30
2018-03-28T14:54:23.328Z,90.90
2018-03-28T14:56:50.876Z,91.00
2018-03-28T14:59:18.722Z,91.20
2018-03-28T15:01:46.404Z,90.60
2018-03-28T15:04:13.930Z,90.60
2018-03-28T15:06:41.500Z,90.60
2018-03-28T15:09:09.804Z,90.30
2018-03-28T15:11:38.060Z,90.40
2018-03-28T15:14:05.644Z,90.30
2018-03-28T15:16:33.449Z,90.10
2018-03-28T15:19:01.006Z,90.00
2018-03-28T15:21:30.033Z,90.00
2018-03-28T15:23:57.645Z,90.00
2018-03-28T15:26:25.202Z,90.20
2018-03-28T15:28:52.783Z,90.40
2018-03-28T15:31:20.316Z,90.50
2018-03-28T15:33:47.866Z,90.30
2018-03-28T15:36:15.671Z,90.50
2018-03-28T15:38:43.970Z,90.40
2018-03-28T15:41:12.245Z,90.40
2018-03-28T15:43:40.508Z,90.10
2018-03-28T15:46:08.279Z,90.10
2018-03-28T15:48:35.799Z,90.40
2018-03-28T15:51:03.319Z,90.60
2018-03-28T15:53:30.837Z,90.50
2018-03-28T15:55:58.480Z,90.60
2018-03-28T15:58:26.031Z,90.60
2018-03-28T16:00:54.121Z,90.70
2018-03-28T16:03:21.661Z,90.50
2018-03-28T16:05:49.216Z,90.50
2018-03-28T16:08:16.836Z,90.60
2018-03-28T16:10:44.405Z,90.50
2018-03-28T16:13:12.729Z,90.90
2018-03-28T16:15:40.376Z,90.90
2018-03-28T16:18:08.014Z,90.80
2018-03-28T16:20:35.771Z,90.80
2018-03-28T16:23:04.271Z,90.80
2018-03-28T16:25:31.800Z,90.80
2018-03-28T16:27:59.531Z,90.90
2018-03-28T16:30:27.096Z,91.10
2018-03-28T16:32:54.814Z,91.10
2018-03-28T16:35:23.473Z,90.90
2018-03-28T16:37:51.003Z,91.10
2018-03-28T16:40:18.570Z,90.80
2018-03-28T16:42:46.120Z,91.00
2018-03-28T16:45:13.793Z,91.00
2018-03-28T16:47:41.331Z,90.90
2018-03-28T16:50:08.833Z,90.90
2018-03-28T16:52:37.458Z,90.90
2018-03-28T16:55:04.995Z,91.10
2018-03-28T16:57:32.612Z,91.20
2018-03-28T17:00:00.322Z,91.00
2018-03-28T17:02:27.993Z,91.00
2018-03-28T17:04:55.868Z,91.20
2018-03-28T17:07:23.638Z,91.20
2018-03-28T17:09:51.401Z,91.30
2018-03-28T17:12:19.028Z,91.20
2018-03-28T17:14:47.660Z,91.20
2018-03-28T17:17:15.185Z,91.20
2018-03-28T17:19:42.796Z,91.40
2018-03-28T17:22:10.424Z,91.40
2018-03-28T17:24:37.971Z,91.40
2018-03-28T17:27:05.507Z,91.60
2018-03-28T17:29:33.813Z,91.70
2018-03-28T17:32:01.630Z,91.60
2018-03-28T17:34:29.212Z,91.60
2018-03-28T17:36:56.966Z,91.60
2018-03-28T17:39:24.538Z,91.30
2018-03-28T17:41:52.950Z,91.50
2018-03-28T17:44:21.241Z,91.50
2018-03-28T17:46:48.784Z,91.40
2018-03-28T17:49:16.349Z,91.60
2018-03-28T17:51:43.930Z,91.80
2018-03-28T17:54:11.553Z,91.70
2018-03-28T17:56:40.103Z,91.50
2018-03-28T17:59:08.000Z,91.50
2018-03-28T18:01:35.861Z,91.60
2018-03-28T18:04:03.957Z,91.60
2018-03-28T18:06:32.658Z,91.60
2018-03-28T18:09:00.233Z,91.60
2018-03-28T18:11:27.774Z,91.60
2018-03-28T18:13:55.407Z,91.50
2018-03-28T18:16:24.174Z,91.70
2018-03-28T18:18:51.798Z,91.70
2018-03-28T18:21:19.516Z,91.80
2018-03-28T18:23:47.068Z,92.00
2018-03-28T18:26:14.692Z,92.10
2018-03-28T18:28:42.263Z,92.00
2018-03-28T18:31:09.802Z,92.30
2018-03-28T18:33:37.356Z,92.00
2018-03-28T18:36:05.232Z,92.20
2018-03-28T18:38:32.796Z,92.20
2018-03-28T18:41:00.598Z,92.20
2018-03-28T18:43:28.188Z,92.10
2018-03-28T18:45:55.765Z,92.00
2018-03-28T18:48:23.441Z,92.00
2018-03-28T18:50:51.266Z,92.20
2018-03-28T18:53:18.824Z,92.00
2018-03-28T18:55:46.626Z,92.20
2018-03-28T18:58:14.485Z,92.20
2018-03-28T19:00:42.395Z,92.20
2018-03-28T19:03:10.241Z,92.20
2018-03-28T19:05:38.204Z,92.20
2018-03-28T19:08:05.873Z,92.10
2018-03-28T19:10:33.548Z,92.10
2018-03-28T19:13:01.253Z,92.10
2018-03-28T19:15:29.654Z,92.20
2018-03-28T19:17:57.847Z,92.40
2018-03-28T19:20:25.580Z,92.20
2018-03-28T19:22:53.246Z,92.20
2018-03-28T19:25:20.857Z,92.10
2018-03-28T19:27:48.464Z,92.30
2018-03-28T19:30:16.082Z,92.20
2018-03-28T19:32:43.755Z,92.40
2018-03-28T19:35:12.293Z,92.40
2018-03-28T19:37:39.916Z,92.30
2018-03-28T19:40:07.518Z,92.30
2018-03-28T19:42:35.118Z,92.30
2018-03-28T19:45:02.733Z,92.20
2018-03-28T19:47:30.413Z,92.10
2018-03-28T19:49:58.346Z,92.30
2018-03-28T19:52:27.035Z,92.30
2018-03-28T19:54:54.649Z,92.40
2018-03-28T19:57:23.286Z,92.70
2018-03-28T19:59:51.327Z,92.70
2018-03-28T20:02:19.832Z,93.70
2018-03-28T20:04:47.765Z,93.70
2018-03-28T20:07:15.365Z,93.70
2018-03-28T20:09:43.131Z,94.00
2018-03-28T20:12:10.721Z,94.60
2018-03-28T20:14:38.303Z,95.00
2018-03-28T20:17:06.092Z,95.20
2018-03-28T20:19:33.628Z,95.10
2018-03-28T20:22:01.249Z,95.50
2018-03-28T20:24:29.544Z,96.10
2018-03-28T20:26:57.066Z,96.20
2018-03-28T20:29:24.773Z,96.50
2018-03-28T20:31:52.405Z,96.80
2018-03-28T20:34:19.997Z,97.40
2018-03-28T20:36:47.852Z,97.10
2018-03-28T20:39:16.083Z,97.50
2018-03-28T20:41:43.996Z,97.30
2018-03-28T20:44:11.851Z,97.30
2018-03-28T20:46:39.471Z,97.80
2018-03-28T20:49:07.126Z,98.90
2018-03-28T20:51:35.249Z,99.00
2018-03-28T20:54:02.849Z,98.70
2018-03-28T20:56:31.191Z,99.80
2018-03-28T20:58:59.203Z,99.80
2018-03-28T21:01:27.186Z,99.90
2018-03-28T21:03:55.086Z,99.90
2018-03-28T21:06:23.059Z,99.90
2018-03-28T21:08:50.847Z,99.90
2018-03-28T21:11:18.899Z,99.90
2018-03-28T21:13:47.396Z,99.90
2018-03-28T21:16:14.960Z,99.90
2018-03-28T21:18:42.738Z,99.90
2018-03-28T21:21:11.095Z,99.90
2018-03-28T21:23:38.643Z,99.90
2018-03-28T21:26:06.425Z,99.90
2018-03-28T21:28:33.997Z,99.90
2018-03-28T21:31:01.576Z,99.90
2018-03-28T21:33:30.012Z,99.90
2018-03-28T21:35:58.219Z,99.90
2018-03-28T21:38:26.283Z,99.90
2018-03-28T21:40:54.166Z,99.90
2018-03-28T21:43:21.733Z,99.90
2018-03-28T21:45:49.397Z,99.90
2018-03-28T21:48:17.516Z,99.90
2018-03-28T21:50:45.182Z,99.90
2018-03-28T21:53:13.145Z,99.90
2018-03-28T21:55:40.896Z,99.90
2018-03-28T21:58:08.526Z,99.90
2018-03-28T22:00:36.317Z,99.90
2018-03-28T22:03:04.104Z,99.90
2018-03-28T22:05:31.649Z,99.90
2018-03-28T22:07:59.211Z,99.90
2018-03-28T22:10:26.737Z,99.90
2018-03-28T22:12:54.338Z,99.90
2018-03-28T22:15:22.088Z,99.90
2018-03-28T22:17:51.521Z,99.90
2018-03-28T22:20:19.412Z,99.90
2018-03-28T22:22:47.081Z,99.90
2018-03-28T22:25:14.903Z,99.90
2018-03-28T22:27:42.466Z,99.90
2018-03-28T22:30:09.985Z,99.90
2018-03-28T22:32:38.455Z,99.90
2018-03-28T22:35:06.037Z,99.90
2018-03-28T22:37:34.443Z,99.90
2018-03-28T22:40:01.980Z,99.90
2018-03-28T22:42:30.248Z,99.90
2018-03-28T22:44:57.970Z,99.90
2018-03-28T22:47:25.517Z,99.90
2018-03-28T22:49:53.087Z,99.90
2018-03-28T22:52:20.696Z,99.90
2018-03-28T22:54:48.235Z,99.90
2018-03-28T22:57:15.775Z,99.90
2018-03-28T22:59:43.351Z,99.90
2018-03-28T23:02:11.136Z,99.90
2018-03-28T23:04:38.747Z,99.90
2018-03-28T23:07:06.259Z,99.90
2018-03-28T23:09:34.555Z,99.90
2018-03-28T23:12:03.114Z,99.90
2018-03-28T23:14:30.691Z,99.90
2018-03-28T23:16:58.204Z,99.90
2018-03-28T23:19:25.852Z,99.90
2018-03-28T23:21:54.076Z,99.90
2018-03-28T23:24:21.629Z,99.90
2018-03-28T23:26:49.140Z,99.90
2018-03-28T23:29:17.051Z,99.90
2018-03-28T23:31:44.578Z,99.90
2018-03-28T23:34:12.070Z,99.90
2018-03-28T23:36:39.762Z,99.90
2018-03-28T23:39:07.463Z,99.90
2018-03-28T23:41:35.099Z,99.90
2018-03-28T23:44:02.622Z,99.90
2018-03-28T23:46:30.148Z,99.90
2018-03-28T23:48:57.645Z,99.90
2018-03-28T23:51:25.202Z,99.90
2018-03-28T23:53:53.496Z,99.90
2018-03-28T23:56:21.764Z,99.90
2018-03-28T23:58:50.150Z,99.90
